createdAt,value
2018-12-29T00:02:00.293Z,54.07
2018-12-29T00:04:27.514Z,53.99
2018-12-29T00:06:54.787Z,53.91
2018-12-29T00:09:22.024Z,54.05
2018-12-29T00:14:23.032Z,54.10
2018-12-29T00:16:50.253Z,54.10
2018-12-29T00:19:17.727Z,54.08
2018-12-29T00:21:45.088Z,54.14
2018-12-29T00:24:12.361Z,54.09
2018-12-29T00:26:39.749Z,54.10
2018-12-29T00:29:07.081Z,54.02
2018-12-29T00:31:34.297Z,54.09
2018-12-29T00:34:01.463Z,54.23
2018-12-29T00:36:28.703Z,54.09
2018-12-29T00:38:55.952Z,54.09
2018-12-29T00:41:23.175Z,54.18
2018-12-29T00:43:50.455Z,54.24
2018-12-29T00:46:17.727Z,54.19
2018-12-29T00:48:44.952Z,54.28
2018-12-29T00:51:12.235Z,54.17
2018-12-29T00:53:39.536Z,54.05
2018-12-29T00:56:13.990Z,54.15
2018-12-29T00:58:41.225Z,54.14
2018-12-29T01:01:08.518Z,54.26
2018-12-29T01:03:35.769Z,54.27
2018-12-29T01:06:02.972Z,54.28
2018-12-29T01:08:30.176Z,54.17
2018-12-29T01:10:57.423Z,54.16
2018-12-29T01:13:44.731Z,54.13
2018-12-29T01:16:11.972Z,54.05
2018-12-29T01:18:39.180Z,54.23
2018-12-29T01:21:06.422Z,54.30
2018-12-29T01:23:33.611Z,54.32
2018-12-29T01:26:00.818Z,54.30
2018-12-29T01:28:28.033Z,54.26
2018-12-29T01:30:55.217Z,54.29
2018-12-29T01:33:22.483Z,54.47
2018-12-29T01:35:49.738Z,54.72
2018-12-29T01:38:16.954Z,54.89
2018-12-29T01:40:44.183Z,54.73
2018-12-29T01:43:11.399Z,54.92
2018-12-29T01:45:38.647Z,54.59
2018-12-29T01:48:05.839Z,54.87
2018-12-29T01:50:33.344Z,54.88
2018-12-29T01:53:00.500Z,54.84
2018-12-29T01:55:27.718Z,54.79
2018-12-29T01:57:54.994Z,54.72
2018-12-29T02:00:22.168Z,54.66
2018-12-29T02:02:49.377Z,54.69
2018-12-29T02:05:16.625Z,54.41
2018-12-29T02:07:43.874Z,54.51
2018-12-29T02:10:11.118Z,54.54
2018-12-29T02:12:38.365Z,54.63
2018-12-29T02:15:05.654Z,54.58
2018-12-29T02:17:32.911Z,54.79
2018-12-29T02:20:00.167Z,54.89
2018-12-29T02:22:27.438Z,55.14
2018-12-29T02:24:54.653Z,55.52
2018-12-29T02:27:21.879Z,55.66
2018-12-29T02:29:49.104Z,55.63
2018-12-29T02:32:16.311Z,55.77
2018-12-29T02:34:43.566Z,55.84
2018-12-29T02:37:10.779Z,55.98
2018-12-29T02:39:37.985Z,56.12
2018-12-29T02:42:05.184Z,56.16
2018-12-29T02:44:32.424Z,56.35
2018-12-29T02:46:59.639Z,56.44
2018-12-29T02:49:26.870Z,56.46
2018-12-29T02:51:54.102Z,56.65
2018-12-29T02:54:21.293Z,56.23
2018-12-29T02:56:48.501Z,56.23
2018-12-29T02:59:15.684Z,56.94
2018-12-29T03:01:42.872Z,56.76
2018-12-29T03:04:10.133Z,56.71
2018-12-29T03:06:37.349Z,56.93
2018-12-29T03:09:05.089Z,56.73
2018-12-29T03:11:32.298Z,56.79
2018-12-29T03:13:59.517Z,56.47
2018-12-29T03:16:26.732Z,56.59
2018-12-29T03:18:53.987Z,56.45
2018-12-29T03:21:21.194Z,56.30
2018-12-29T03:23:48.425Z,56.05
2018-12-29T03:26:15.580Z,56.47
2018-12-29T03:28:42.835Z,56.39
2018-12-29T03:31:10.020Z,56.49
2018-12-29T03:33:37.220Z,56.28
2018-12-29T03:36:04.530Z,56.33
2018-12-29T03:38:31.739Z,56.58
2018-12-29T03:40:58.910Z,56.57
2018-12-29T03:43:26.124Z,56.30
2018-12-29T03:45:53.289Z,56.54
2018-12-29T03:48:20.494Z,56.38
2018-12-29T03:50:47.702Z,56.94
2018-12-29T03:53:14.911Z,56.72
2018-12-29T03:55:42.110Z,56.84
2018-12-29T03:58:09.327Z,56.84
2018-12-29T04:00:36.534Z,56.76
2018-12-29T04:03:03.740Z,56.87
2018-12-29T04:05:30.926Z,56.82
2018-12-29T04:07:58.169Z,56.90
2018-12-29T04:10:25.369Z,57.04
2018-12-29T04:12:55.483Z,57.13
2018-12-29T04:15:22.706Z,57.09
2018-12-29T04:17:49.930Z,57.13
2018-12-29T04:20:17.184Z,57.14
2018-12-29T04:22:44.364Z,57.14
2018-12-29T04:25:11.595Z,56.98
2018-12-29T04:27:38.788Z,57.25
2018-12-29T04:30:05.997Z,57.25
2018-12-29T04:32:33.182Z,56.82
2018-12-29T04:35:00.453Z,56.69
2018-12-29T04:37:27.660Z,56.68
2018-12-29T04:39:54.835Z,56.65
2018-12-29T04:42:22.062Z,57.07
2018-12-29T04:44:49.250Z,57.20
2018-12-29T04:47:16.600Z,56.76
2018-12-29T04:49:43.762Z,56.94
2018-12-29T04:52:10.965Z,57.34
2018-12-29T04:54:38.186Z,57.28
2018-12-29T04:57:05.392Z,57.20
2018-12-29T04:59:32.614Z,57.20
2018-12-29T05:01:59.775Z,57.10
2018-12-29T05:04:26.996Z,57.15
2018-12-29T05:06:54.170Z,57.17
2018-12-29T05:09:21.375Z,57.23
2018-12-29T05:11:48.568Z,57.25
2018-12-29T05:14:15.785Z,57.12
2018-12-29T05:16:42.980Z,57.16
2018-12-29T05:19:10.334Z,57.23
2018-12-29T05:21:37.548Z,57.23
2018-12-29T05:24:04.814Z,56.89
2018-12-29T05:26:32.032Z,58.02
2018-12-29T05:28:59.424Z,57.95
2018-12-29T05:31:27.224Z,56.97
2018-12-29T05:33:54.496Z,57.13
2018-12-29T05:36:21.720Z,56.96
2018-12-29T05:38:49.025Z,56.88
2018-12-29T05:41:16.315Z,56.81
2018-12-29T05:43:48.349Z,56.62
2018-12-29T05:46:20.333Z,56.56
2018-12-29T05:48:44.789Z,56.59
2018-12-29T05:51:12.009Z,56.53
2018-12-29T05:53:39.247Z,56.46
2018-12-29T05:56:06.483Z,56.37
2018-12-29T05:58:33.900Z,56.40
2018-12-29T06:01:01.267Z,56.42
2018-12-29T06:03:28.774Z,56.36
2018-12-29T06:05:55.910Z,56.36
2018-12-29T06:08:23.184Z,56.75
2018-12-29T06:10:50.352Z,56.45
2018-12-29T06:13:17.574Z,56.10
2018-12-29T06:15:44.782Z,56.13
2018-12-29T06:18:12.016Z,55.98
2018-12-29T06:20:39.178Z,55.75
2018-12-29T06:23:06.370Z,55.91
2018-12-29T06:25:33.561Z,55.78
2018-12-29T06:28:00.797Z,55.76
2018-12-29T06:30:28.047Z,55.84
2018-12-29T06:32:55.242Z,55.71
2018-12-29T06:35:22.480Z,55.61
2018-12-29T06:37:49.659Z,55.72
2018-12-29T06:40:16.830Z,55.63
2018-12-29T06:42:44.118Z,55.74
2018-12-29T06:45:11.370Z,55.76
2018-12-29T06:47:38.543Z,55.90
2018-12-29T06:50:05.883Z,55.88
2018-12-29T06:52:33.064Z,55.86
2018-12-29T06:55:00.239Z,55.65
2018-12-29T06:57:27.463Z,55.79
2018-12-29T06:59:54.632Z,55.63
2018-12-29T07:02:21.895Z,55.56
2018-12-29T07:04:49.076Z,55.53
2018-12-29T07:07:16.300Z,55.56
2018-12-29T07:09:43.487Z,55.55
2018-12-29T07:12:10.693Z,55.48
2018-12-29T07:14:37.839Z,55.92
2018-12-29T07:17:05.070Z,56.03
2018-12-29T07:19:32.227Z,55.62
2018-12-29T07:21:59.444Z,55.64
2018-12-29T07:24:26.654Z,56.21
2018-12-29T07:26:53.815Z,55.28
2018-12-29T07:29:21.029Z,54.96
2018-12-29T07:31:48.230Z,54.76
2018-12-29T07:34:15.444Z,54.66
2018-12-29T07:36:42.619Z,54.61
2018-12-29T07:39:09.857Z,54.55
2018-12-29T07:41:38.596Z,54.44
2018-12-29T07:44:05.884Z,54.60
2018-12-29T07:46:33.103Z,55.20
2018-12-29T07:49:00.349Z,55.07
2018-12-29T07:51:28.267Z,54.98
2018-12-29T07:53:55.501Z,54.89
2018-12-29T07:56:22.709Z,54.79
2018-12-29T07:58:49.880Z,54.70
2018-12-29T08:01:17.119Z,54.73
2018-12-29T08:03:44.329Z,54.83
2018-12-29T08:06:11.523Z,55.09
2018-12-29T08:08:38.720Z,55.02
2018-12-29T08:11:05.914Z,55.11
2018-12-29T08:13:33.239Z,55.12
2018-12-29T08:16:00.426Z,55.08
2018-12-29T08:18:27.717Z,54.88
2018-12-29T08:20:54.994Z,54.75
2018-12-29T08:23:22.384Z,54.75
2018-12-29T08:25:49.565Z,54.65
2018-12-29T08:28:16.760Z,54.65
2018-12-29T08:30:44.021Z,54.46
2018-12-29T08:33:11.226Z,54.49
2018-12-29T08:35:38.574Z,54.48
2018-12-29T08:38:05.808Z,54.60
2018-12-29T08:40:32.960Z,54.37
2018-12-29T08:43:00.127Z,54.27
2018-12-29T08:45:27.367Z,54.16
2018-12-29T08:47:54.548Z,54.13
2018-12-29T08:50:21.807Z,54.08
2018-12-29T08:52:48.972Z,53.95
2018-12-29T08:55:16.258Z,53.95
2018-12-29T08:57:43.431Z,53.90
2018-12-29T09:00:10.927Z,53.85
2018-12-29T09:02:38.465Z,53.80
2018-12-29T09:05:05.661Z,53.71
2018-12-29T09:07:32.860Z,53.61
2018-12-29T09:10:00.234Z,53.61
2018-12-29T09:12:27.449Z,53.56
2018-12-29T09:14:54.613Z,53.52
2018-12-29T09:17:25.102Z,53.51
2018-12-29T09:19:52.334Z,53.44
2018-12-29T09:22:19.585Z,53.41
2018-12-29T09:24:46.744Z,53.43
2018-12-29T09:27:13.969Z,53.41
2018-12-29T09:29:41.175Z,53.40
2018-12-29T09:32:08.374Z,53.37
2018-12-29T09:34:35.819Z,53.32
2018-12-29T09:37:03.176Z,53.41
2018-12-29T09:39:30.426Z,53.26
2018-12-29T09:41:57.605Z,53.29
2018-12-29T09:44:24.848Z,53.18
2018-12-29T09:46:52.150Z,52.82
2018-12-29T09:49:20.453Z,52.82
2018-12-29T09:51:47.676Z,53.02
2018-12-29T09:54:14.869Z,53.08
2018-12-29T09:56:42.113Z,53.03
2018-12-29T09:59:09.352Z,52.98
2018-12-29T10:01:36.560Z,52.96
2018-12-29T10:04:03.732Z,52.94
2018-12-29T10:06:30.925Z,52.96
2018-12-29T10:08:58.100Z,52.87
2018-12-29T10:11:25.324Z,52.87
2018-12-29T10:13:52.527Z,52.80
2018-12-29T10:16:19.751Z,52.76
2018-12-29T10:18:46.961Z,52.71
2018-12-29T10:21:14.158Z,52.67
2018-12-29T10:23:41.352Z,52.64
2018-12-29T10:26:08.547Z,52.58
2018-12-29T10:28:35.731Z,52.47
2018-12-29T10:31:02.876Z,52.44
2018-12-29T10:33:30.071Z,52.42
2018-12-29T10:35:57.346Z,52.37
2018-12-29T10:38:24.595Z,52.34
2018-12-29T10:40:51.989Z,52.34
2018-12-29T10:43:19.164Z,52.34
2018-12-29T10:45:46.372Z,52.34
2018-12-29T10:48:13.533Z,52.31
2018-12-29T10:50:40.849Z,52.27
2018-12-29T10:53:08.076Z,52.28
2018-12-29T10:55:35.330Z,52.32
2018-12-29T10:58:02.572Z,52.32
2018-12-29T11:00:35.017Z,52.19
2018-12-29T11:02:59.062Z,52.18
2018-12-29T11:05:26.242Z,52.11
2018-12-29T11:07:53.423Z,52.09
2018-12-29T11:10:20.685Z,52.13
2018-12-29T11:12:47.865Z,52.15
2018-12-29T11:15:16.584Z,52.14
2018-12-29T11:17:44.027Z,52.20
2018-12-29T11:20:12.096Z,52.18
2018-12-29T11:22:39.346Z,52.17
2018-12-29T11:25:06.525Z,52.21
2018-12-29T11:27:33.798Z,52.21
2018-12-29T11:30:00.981Z,52.13
2018-12-29T11:32:28.211Z,52.10
2018-12-29T11:34:55.396Z,52.11
2018-12-29T11:37:22.601Z,52.10
2018-12-29T11:39:49.815Z,52.10
2018-12-29T11:42:17.006Z,52.12
2018-12-29T11:44:44.350Z,52.15
2018-12-29T11:47:11.548Z,52.10
2018-12-29T11:49:38.715Z,52.07
2018-12-29T11:52:05.932Z,52.03
2018-12-29T11:54:33.241Z,52.02
2018-12-29T11:57:00.467Z,51.98
2018-12-29T11:59:27.648Z,52.05
2018-12-29T12:01:55.011Z,52.02
2018-12-29T12:04:22.161Z,52.07
2018-12-29T12:06:49.323Z,52.10
2018-12-29T12:09:16.555Z,52.09
2018-12-29T12:11:43.868Z,52.11
2018-12-29T12:14:11.054Z,52.10
2018-12-29T12:16:38.262Z,52.07
2018-12-29T12:19:05.475Z,52.04
2018-12-29T12:21:32.957Z,52.04
2018-12-29T12:24:03.289Z,52.04
2018-12-29T12:26:32.400Z,52.23
2018-12-29T12:28:59.967Z,52.46
2018-12-29T12:31:28.444Z,52.42
2018-12-29T12:33:55.719Z,52.46
2018-12-29T12:36:23.344Z,52.46
2018-12-29T12:38:50.620Z,52.56
2018-12-29T12:41:18.216Z,52.48
2018-12-29T12:43:45.403Z,52.54
2018-12-29T12:46:13.340Z,52.66
2018-12-29T12:48:41.174Z,52.55
2018-12-29T12:51:08.621Z,52.58
2018-12-29T12:53:37.245Z,52.40
2018-12-29T12:56:05.262Z,52.25
2018-12-29T12:58:33.900Z,52.19
2018-12-29T13:01:01.412Z,52.10
2018-12-29T13:03:29.747Z,52.09
2018-12-29T13:05:59.570Z,52.07
2018-12-29T13:08:26.809Z,52.06
2018-12-29T13:10:54.001Z,52.05
2018-12-29T13:13:21.326Z,52.04
2018-12-29T13:15:48.512Z,52.01
2018-12-29T13:18:15.780Z,51.95
2018-12-29T13:20:43.019Z,51.96
2018-12-29T13:23:10.230Z,52.08
2018-12-29T13:25:37.836Z,52.01
2018-12-29T13:28:05.739Z,52.03
2018-12-29T13:30:33.452Z,52.07
2018-12-29T13:33:00.912Z,52.11
2018-12-29T13:35:28.079Z,52.10
2018-12-29T13:37:55.281Z,52.08
2018-12-29T13:40:22.516Z,51.99
2018-12-29T13:42:49.753Z,51.98
2018-12-29T13:45:17.010Z,51.96
2018-12-29T13:47:44.224Z,51.99
2018-12-29T13:50:14.664Z,52.02
2018-12-29T13:52:41.973Z,52.25
2018-12-29T13:55:09.716Z,52.35
2018-12-29T13:57:37.122Z,52.32
2018-12-29T14:00:04.516Z,52.31
2018-12-29T14:02:32.212Z,52.27
2018-12-29T14:04:59.624Z,52.34
2018-12-29T14:07:45.536Z,52.34
2018-12-29T14:10:12.924Z,52.29
2018-12-29T14:12:40.317Z,52.40
2018-12-29T14:15:07.525Z,52.40
2018-12-29T14:17:35.816Z,52.40
2018-12-29T14:20:03.803Z,52.45
2018-12-29T14:22:31.092Z,52.38
2018-12-29T14:24:58.333Z,52.38
2018-12-29T14:27:26.149Z,52.34
2018-12-29T14:29:56.172Z,52.38
2018-12-29T14:32:23.712Z,52.45
2018-12-29T14:34:50.963Z,52.47
2018-12-29T14:37:18.178Z,52.45
2018-12-29T14:39:45.385Z,52.53
2018-12-29T14:42:12.627Z,52.44
2018-12-29T14:44:39.840Z,52.47
2018-12-29T14:47:07.064Z,52.42
2018-12-29T14:49:34.229Z,52.42
2018-12-29T14:52:01.464Z,52.37
2018-12-29T14:54:28.717Z,52.38
2018-12-29T14:56:55.888Z,52.38
2018-12-29T14:59:23.455Z,52.42
2018-12-29T15:01:50.684Z,52.41
2018-12-29T15:04:17.854Z,52.36
2018-12-29T15:06:45.085Z,52.37
2018-12-29T15:09:12.269Z,52.33
2018-12-29T15:11:39.538Z,52.32
2018-12-29T15:14:06.745Z,52.31
2018-12-29T15:16:34.321Z,52.34
2018-12-29T15:19:01.537Z,52.32
2018-12-29T15:21:29.109Z,52.25
2018-12-29T15:23:56.305Z,52.28
2018-12-29T15:26:23.487Z,52.23
2018-12-29T15:28:50.643Z,52.16
2018-12-29T15:31:17.971Z,52.24
2018-12-29T15:33:45.125Z,52.23
2018-12-29T15:36:15.999Z,52.23
2018-12-29T15:38:41.463Z,52.21
2018-12-29T15:41:08.656Z,52.25
2018-12-29T15:43:35.930Z,52.22
2018-12-29T15:46:03.114Z,52.19
2018-12-29T15:48:30.621Z,52.12
2018-12-29T15:50:57.885Z,52.16
2018-12-29T15:53:25.044Z,52.12
2018-12-29T15:55:52.215Z,52.19
2018-12-29T15:58:19.577Z,52.20
2018-12-29T16:00:46.870Z,52.06
2018-12-29T16:03:14.423Z,52.06
2018-12-29T16:05:41.590Z,52.14
2018-12-29T16:08:08.784Z,52.13
2018-12-29T16:10:36.026Z,52.10
2018-12-29T16:13:03.244Z,52.16
2018-12-29T16:15:30.438Z,52.19
2018-12-29T16:17:58.182Z,52.22
2018-12-29T16:20:25.336Z,52.23
2018-12-29T16:22:52.754Z,52.28
2018-12-29T16:25:20.483Z,52.28
2018-12-29T16:27:47.695Z,52.17
2018-12-29T16:30:14.911Z,52.02
2018-12-29T16:32:42.141Z,52.02
2018-12-29T16:35:09.377Z,52.06
2018-12-29T16:37:37.520Z,52.14
2018-12-29T16:40:04.941Z,52.13
2018-12-29T16:42:32.801Z,52.22
2018-12-29T16:45:02.435Z,52.06
2018-12-29T16:47:29.739Z,52.00
2018-12-29T16:49:56.971Z,52.06
2018-12-29T16:52:27.962Z,52.14
2018-12-29T16:54:55.147Z,52.02
2018-12-29T16:57:22.325Z,52.00
2018-12-29T16:59:49.616Z,52.13
2018-12-29T17:02:17.184Z,52.43
2018-12-29T17:04:44.400Z,52.69
2018-12-29T17:07:12.262Z,52.65
2018-12-29T17:09:39.962Z,52.73
2018-12-29T17:12:13.899Z,52.74
2018-12-29T17:14:43.143Z,52.95
2018-12-29T17:17:11.022Z,53.13
2018-12-29T17:19:40.452Z,53.18
2018-12-29T17:22:08.967Z,53.05
2018-12-29T17:24:37.026Z,53.09
2018-12-29T17:27:04.676Z,52.98
2018-12-29T17:29:33.475Z,53.07
2018-12-29T17:32:01.204Z,53.05
2018-12-29T17:34:28.429Z,53.07
2018-12-29T17:36:56.613Z,53.03
2018-12-29T17:39:24.144Z,52.97
2018-12-29T17:41:52.250Z,53.05
2018-12-29T17:44:21.596Z,53.03
2018-12-29T17:46:48.864Z,52.98
2018-12-29T17:49:22.620Z,52.77
2018-12-29T17:51:45.178Z,52.45
2018-12-29T17:54:12.576Z,52.34
2018-12-29T17:56:39.766Z,52.11
2018-12-29T17:59:07.308Z,52.12
2018-12-29T18:01:34.657Z,52.03
2018-12-29T18:04:01.866Z,51.97
2018-12-29T18:06:29.015Z,52.06
2018-12-29T18:08:56.618Z,52.36
2018-12-29T18:11:23.869Z,52.40
2018-12-29T18:13:51.119Z,52.50
2018-12-29T18:16:18.686Z,52.49
2018-12-29T18:18:45.923Z,52.52
2018-12-29T18:21:13.103Z,52.39
2018-12-29T18:23:40.372Z,52.20
2018-12-29T18:26:07.679Z,52.12
2018-12-29T18:28:34.935Z,52.13
2018-12-29T18:31:04.972Z,52.13
2018-12-29T18:33:37.187Z,52.16
2018-12-29T18:36:01.250Z,52.21
2018-12-29T18:38:28.455Z,52.16
2018-12-29T18:40:55.682Z,52.30
2018-12-29T18:43:22.947Z,52.33
2018-12-29T18:45:50.183Z,52.31
2018-12-29T18:48:17.424Z,52.30
2018-12-29T18:50:44.820Z,52.27
2018-12-29T18:53:12.014Z,52.27
2018-12-29T18:55:39.365Z,52.27
2018-12-29T18:58:06.675Z,52.28
2018-12-29T19:00:34.276Z,52.30
2018-12-29T19:03:01.477Z,52.35
2018-12-29T19:05:28.717Z,52.25
2018-12-29T19:07:55.873Z,52.33
2018-12-29T19:10:23.109Z,52.42
2018-12-29T19:12:51.675Z,52.52
2018-12-29T19:15:19.333Z,52.49
2018-12-29T19:17:46.855Z,52.42
2018-12-29T19:20:14.710Z,52.36
2018-12-29T19:22:41.912Z,52.28
2018-12-29T19:25:09.116Z,52.31
2018-12-29T19:27:36.372Z,52.30
2018-12-29T19:30:05.379Z,52.24
2018-12-29T19:32:32.931Z,52.27
2018-12-29T19:35:00.630Z,52.31
2018-12-29T19:37:28.358Z,52.29
2018-12-29T19:39:55.946Z,52.31
2018-12-29T19:42:23.131Z,52.37
2018-12-29T19:44:50.336Z,52.32
2018-12-29T19:47:17.722Z,52.33
2018-12-29T19:49:44.914Z,52.35
2018-12-29T19:52:12.070Z,52.35
2018-12-29T19:54:39.429Z,52.32
2018-12-29T19:57:07.061Z,52.35
2018-12-29T19:59:34.724Z,52.35
2018-12-29T20:02:01.977Z,52.28
2018-12-29T20:04:29.370Z,52.24
2018-12-29T20:06:57.055Z,52.27
2018-12-29T20:09:24.284Z,52.25
2018-12-29T20:11:51.521Z,52.24
2018-12-29T20:14:18.784Z,52.25
2018-12-29T20:16:45.960Z,52.18
2018-12-29T20:19:13.145Z,52.23
2018-12-29T20:21:40.344Z,52.28
2018-12-29T20:24:07.536Z,52.25
2018-12-29T20:26:35.100Z,52.27
2018-12-29T20:29:02.365Z,52.22
2018-12-29T20:31:29.562Z,52.33
2018-12-29T20:33:56.752Z,52.31
2018-12-29T20:36:24.117Z,52.26
2018-12-29T20:38:51.285Z,52.29
2018-12-29T20:41:18.864Z,52.28
2018-12-29T20:43:46.059Z,52.31
2018-12-29T20:46:13.241Z,52.32
2018-12-29T20:48:40.453Z,52.36
2018-12-29T20:51:07.651Z,52.59
2018-12-29T20:53:34.885Z,52.62
2018-12-29T20:56:02.650Z,52.54
2018-12-29T20:58:29.821Z,52.44
2018-12-29T21:00:57.049Z,52.45
2018-12-29T21:03:24.268Z,52.48
2018-12-29T21:05:51.467Z,52.44
2018-12-29T21:08:18.784Z,52.46
2018-12-29T21:10:45.981Z,52.51
2018-12-29T21:13:13.201Z,52.55
2018-12-29T21:15:40.455Z,52.51
2018-12-29T21:18:07.649Z,52.56
2018-12-29T21:20:34.874Z,52.53
2018-12-29T21:23:02.097Z,52.53
2018-12-29T21:25:29.312Z,52.55
2018-12-29T21:27:56.797Z,52.54
2018-12-29T21:30:23.999Z,52.48
2018-12-29T21:32:51.193Z,52.54
2018-12-29T21:35:18.390Z,52.54
2018-12-29T21:37:45.608Z,52.53
2018-12-29T21:40:12.868Z,52.57
2018-12-29T21:42:40.493Z,52.54
2018-12-29T21:45:07.736Z,52.55
2018-12-29T21:47:34.997Z,52.56
2018-12-29T21:50:02.326Z,52.55
2018-12-29T21:52:29.545Z,52.58
2018-12-29T21:54:56.758Z,52.50
2018-12-29T21:57:24.519Z,52.49
2018-12-29T21:59:51.710Z,52.55
2018-12-29T22:02:18.947Z,52.57
2018-12-29T22:04:46.136Z,52.60
2018-12-29T22:07:13.343Z,52.62
2018-12-29T22:09:40.623Z,52.51
2018-12-29T22:12:07.832Z,52.51
2018-12-29T22:14:35.021Z,52.60
2018-12-29T22:17:02.296Z,52.66
2018-12-29T22:19:29.594Z,52.66
2018-12-29T22:21:56.834Z,52.63
2018-12-29T22:24:24.033Z,52.57
2018-12-29T22:26:51.372Z,52.57
2018-12-29T22:29:18.533Z,52.64
2018-12-29T22:31:45.712Z,52.66
2018-12-29T22:34:12.938Z,52.60
2018-12-29T22:36:40.155Z,52.62
2018-12-29T22:39:07.439Z,52.59
2018-12-29T22:41:34.683Z,52.64
2018-12-29T22:44:02.035Z,52.60
2018-12-29T22:46:29.244Z,52.62
2018-12-29T22:48:56.422Z,52.59
2018-12-29T22:51:23.652Z,52.63
2018-12-29T22:53:50.830Z,52.62
2018-12-29T22:56:18.083Z,52.56
2018-12-29T22:58:45.667Z,52.62
2018-12-29T23:01:12.867Z,52.59
2018-12-29T23:03:40.091Z,52.64
2018-12-29T23:06:07.433Z,52.65
2018-12-29T23:08:34.593Z,52.62
2018-12-29T23:11:02.319Z,52.62
2018-12-29T23:13:29.555Z,52.62
2018-12-29T23:15:56.772Z,52.58
2018-12-29T23:18:23.997Z,52.62
2018-12-29T23:20:51.186Z,52.54
2018-12-29T23:23:18.398Z,52.59
2018-12-29T23:25:45.989Z,52.63
2018-12-29T23:28:13.226Z,52.56
2018-12-29T23:30:40.406Z,52.60
2018-12-29T23:33:07.606Z,52.53
2018-12-29T23:35:34.795Z,52.51
2018-12-29T23:38:02.542Z,52.49
2018-12-29T23:40:29.729Z,52.45
2018-12-29T23:42:56.934Z,52.56
2018-12-29T23:45:24.141Z,52.56
2018-12-29T23:47:51.396Z,52.69
2018-12-29T23:50:18.620Z,52.69
2018-12-29T23:52:46.304Z,52.76
2018-12-29T23:55:13.905Z,52.76
2018-12-29T23:57:41.118Z,52.36
